Time;durP1;ratioP1;P1;durP2;ratioP2;P2;SDS_P1;SDS_P2;PMS_P1;PMS_P2;Temp;Humidity;BMP_temperature;BMP_pressure;BME280_temperature;BME280_humidity;BME280_pressure;Samples;Min_cycle;Max_cycle;Signal;HPM_P1;HPM_P2
2023/10/27 00:00:49;;;;;;;5.28;2.42;;;11.60;99.90;;;13.36;67.69;95478.13;5019573;28;20042;-50
2023/10/27 00:03:16;;;;;;;5.65;2.60;;;11.60;99.90;;;13.25;67.96;95478.91;5012499;28;20077;-51
2023/10/27 00:05:44;;;;;;;7.30;2.72;;;11.50;99.90;;;13.26;67.93;95476.00;5011666;28;20429;-51
2023/10/27 00:08:13;;;;;;;4.13;2.75;;;11.50;99.90;;;13.28;67.91;95479.25;5012555;28;20049;-52
2023/10/27 00:10:41;;;;;;;4.07;2.22;;;11.60;99.90;;;13.28;67.98;95475.75;5012322;28;20490;-50
2023/10/27 00:13:09;;;;;;;6.53;3.33;;;11.50;99.90;;;13.30;67.97;95471.84;5011196;28;20090;-51
2023/10/27 00:15:37;;;;;;;4.72;2.10;;;11.60;99.90;;;13.35;67.83;95471.97;5012124;28;20045;-47
2023/10/27 00:18:04;;;;;;;5.82;2.97;;;11.60;99.90;;;13.31;67.85;95475.34;5012243;28;20046;-51
2023/10/27 00:20:32;;;;;;;5.95;2.05;;;11.60;99.90;;;13.34;67.83;95478.38;5012905;28;20049;-49
2023/10/27 00:23:00;;;;;;;4.70;2.60;;;11.60;99.90;;;13.31;67.85;95480.69;5012869;28;20125;-48
2023/10/27 00:25:28;;;;;;;5.30;2.40;;;11.60;99.90;;;13.28;67.83;95463.22;5012256;28;20520;-50
2023/10/27 00:27:56;;;;;;;4.05;2.38;;;11.50;99.90;;;13.28;67.92;95473.91;5012329;28;20410;-51
2023/10/27 00:30:23;;;;;;;4.85;2.50;;;11.50;99.90;;;13.25;67.80;95468.22;5010533;28;20046;-52
2023/10/27 00:32:51;;;;;;;3.50;2.45;;;11.50;99.90;;;13.27;67.88;95466.94;4996794;28;20042;-50
2023/10/27 00:35:19;;;;;;;6.18;2.90;;;11.50;99.90;;;13.26;67.84;95476.00;5011030;28;20049;-48
2023/10/27 00:37:46;;;;;;;5.00;2.88;;;11.50;99.90;;;13.25;67.84;95470.88;5011844;28;20042;-50
2023/10/27 00:40:14;;;;;;;5.20;2.92;;;11.40;99.90;;;13.20;67.94;95471.56;5010667;28;20064;-50
2023/10/27 00:42:42;;;;;;;11.63;3.55;;;11.40;99.90;;;13.16;68.17;95473.91;5010682;28;20049;-50
2023/10/27 00:45:10;;;;;;;6.00;3.00;;;11.40;99.90;;;13.11;68.15;95476.44;5011894;28;20101;-50
2023/10/27 00:47:39;;;;;;;9.32;3.72;;;11.30;99.90;;;13.11;68.16;95472.97;5011861;28;20049;-52
2023/10/27 00:50:06;;;;;;;9.35;4.15;;;11.30;99.90;;;13.12;68.08;95474.56;5010188;28;20050;-48
2023/10/27 00:52:35;;;;;;;11.23;4.82;;;11.40;99.90;;;13.11;68.12;95468.44;5010989;28;20053;-49
2023/10/27 00:55:06;;;;;;;9.05;4.85;;;11.30;99.90;;;13.11;68.08;95460.41;5002436;28;20050;-52
2023/10/27 00:57:36;;;;;;;9.55;4.88;;;11.30;99.90;;;13.06;67.88;95460.28;4994479;28;20042;-47
2023/10/27 01:00:05;;;;;;;12.95;4.78;;;11.30;99.90;;;13.08;67.99;95468.06;5018440;28;20046;-47
2023/10/27 01:02:32;;;;;;;3.92;2.38;;;11.30;99.90;;;13.07;67.75;95458.44;5010038;28;20042;-47
2023/10/27 01:05:00;;;;;;;4.57;2.50;;;11.40;99.90;;;13.05;67.70;95458.66;5011979;28;20072;-51
2023/10/27 01:07:28;;;;;;;3.53;1.95;;;11.30;99.90;;;13.07;67.71;95451.25;5011923;28;20050;-50
2023/10/27 01:09:56;;;;;;;5.13;1.90;;;11.30;99.90;;;13.06;67.52;95449.59;5011085;28;20057;-50
2023/10/27 01:12:24;;;;;;;6.10;2.17;;;11.30;99.90;;;13.12;67.38;95455.88;5009922;28;20058;-51
2023/10/27 01:14:52;;;;;;;3.97;2.05;;;11.40;99.90;;;13.14;67.23;95457.28;5010839;28;20042;-52
2023/10/27 01:17:19;;;;;;;6.80;2.58;;;11.40;99.90;;;13.09;67.13;95453.69;5010658;28;20497;-50
2023/10/27 01:19:47;;;;;;;2.40;1.70;;;11.30;99.90;;;13.04;67.21;95451.69;5011254;28;20402;-50
2023/10/27 01:22:15;;;;;;;6.85;2.22;;;11.30;99.90;;;13.08;67.16;95452.03;5002562;28;20046;-52
2023/10/27 01:24:43;;;;;;;4.82;2.15;;;11.30;99.90;;;13.05;66.77;95455.19;5011452;28;20045;-51
2023/10/27 01:27:11;;;;;;;2.45;1.60;;;11.30;99.90;;;13.02;67.07;95447.63;5009797;28;20046;-52
2023/10/27 01:29:38;;;;;;;4.90;2.70;;;11.30;99.90;;;13.04;67.08;95449.00;5010294;28;20049;-52
2023/10/27 01:32:06;;;;;;;2.67;1.75;;;11.30;99.90;;;13.06;66.82;95452.28;5009238;28;20049;-50
2023/10/27 01:34:34;;;;;;;5.15;1.65;;;11.30;99.90;;;13.07;66.82;95437.06;5010296;28;20057;-52
2023/10/27 01:37:01;;;;;;;3.83;2.20;;;11.30;99.90;;;13.03;67.03;95442.06;5010666;28;20034;-49
2023/10/27 01:39:29;;;;;;;6.18;2.67;;;11.30;99.90;;;13.00;67.06;95439.84;5010931;28;20429;-54
2023/10/27 01:41:56;;;;;;;4.40;1.95;;;11.20;99.90;;;12.97;66.93;95441.13;5009547;28;20058;-52
2023/10/27 01:44:24;;;;;;;4.10;1.80;;;11.20;99.90;;;12.88;67.13;95428.34;5009229;28;20065;-48
2023/10/27 01:46:52;;;;;;;7.18;2.17;;;11.10;99.90;;;12.86;67.11;95431.22;5011281;28;20041;-49
2023/10/27 01:49:19;;;;;;;5.67;1.97;;;11.10;99.90;;;12.86;67.22;95428.56;5010611;28;20396;-52
2023/10/27 01:51:47;;;;;;;3.13;1.90;;;11.10;99.90;;;12.89;67.00;95428.13;5010392;28;20056;-52
2023/10/27 01:54:15;;;;;;;6.03;1.40;;;11.20;99.90;;;12.90;66.95;95428.91;5008935;28;20050;-48
2023/10/27 01:56:42;;;;;;;5.20;2.00;;;11.20;99.90;;;12.92;67.01;95427.63;5009576;28;20050;-52
2023/10/27 01:59:10;;;;;;;5.00;1.95;;;11.20;99.90;;;12.90;66.76;95419.03;5010095;28;20046;-52
2023/10/27 02:01:39;;;;;;;2.65;1.63;;;11.20;99.90;;;12.93;66.74;95420.44;5009803;28;20041;-51
2023/10/27 02:04:06;;;;;;;4.07;1.60;;;11.20;99.90;;;12.89;66.58;95413.91;5009315;28;20045;-52
2023/10/27 02:06:34;;;;;;;3.15;1.45;;;11.20;99.90;;;12.90;66.60;95412.91;5010308;28;20049;-53
2023/10/27 02:09:02;;;;;;;1.67;1.10;;;11.20;99.90;;;12.89;66.55;95413.91;5009522;28;20046;-49
2023/10/27 02:11:30;;;;;;;5.40;1.67;;;11.10;99.90;;;12.88;66.16;95413.13;5001625;28;20054;-49
2023/10/27 02:13:58;;;;;;;5.10;1.73;;;11.10;99.90;;;12.82;66.37;95416.72;5011297;28;20057;-53
2023/10/27 02:16:26;;;;;;;1.95;1.45;;;11.10;99.90;;;12.79;66.42;95412.66;5010131;28;20568;-51
2023/10/27 02:18:53;;;;;;;3.00;1.27;;;11.00;99.90;;;12.79;66.30;95399.31;5009492;28;20429;-51
2023/10/27 02:21:21;;;;;;;2.17;1.40;;;11.00;99.90;;;12.76;66.43;95412.28;5011475;28;20042;-52
2023/10/27 02:23:49;;;;;;;2.47;1.37;;;11.00;99.90;;;12.76;66.27;95402.41;5013461;28;20116;-49
2023/10/27 02:26:17;;;;;;;1.48;1.20;;;11.00;99.90;;;12.74;66.14;95407.19;4997147;28;20061;-49
2023/10/27 02:28:46;;;;;;;1.77;1.13;;;11.00;99.90;;;12.71;66.40;95404.16;5014745;28;20390;-52
2023/10/27 02:31:13;;;;;;;3.00;1.37;;;11.00;99.90;;;12.75;66.44;95407.97;5013055;28;20058;-51
2023/10/27 02:33:41;;;;;;;3.87;1.70;;;11.00;99.90;;;12.74;66.40;95420.53;5013505;28;20064;-50
2023/10/27 02:36:09;;;;;;;1.87;1.53;;;11.00;99.90;;;12.68;66.46;95424.13;5012808;28;20059;-51
2023/10/27 02:38:36;;;;;;;2.72;1.30;;;10.90;99.90;;;12.70;66.35;95421.22;5012654;28;20234;-53
2023/10/27 02:41:09;;;;;;;4.43;1.60;;;10.90;99.90;;;12.72;66.59;95417.28;5014093;28;20042;-50
2023/10/27 02:43:38;;;;;;;5.73;1.50;;;10.90;99.90;;;12.77;66.42;95421.91;5004963;28;20049;-53
2023/10/27 02:46:05;;;;;;;4.10;1.30;;;11.00;99.90;;;12.73;66.45;95413.53;5014465;28;20053;-48
2023/10/27 02:48:33;;;;;;;3.87;1.57;;;11.00;99.90;;;12.75;66.47;95408.78;5014122;28;20409;-54
2023/10/27 02:51:01;;;;;;;3.37;1.60;;;11.00;99.90;;;12.76;66.36;95401.63;5012729;28;20050;-52
2023/10/27 02:53:28;;;;;;;3.07;1.47;;;11.00;99.90;;;12.73;66.31;95400.19;5014270;28;20521;-52
2023/10/27 02:56:08;;;;;;;3.47;1.27;;;11.00;99.90;;;12.67;66.35;95398.44;4996930;28;20053;-50
2023/10/27 02:58:37;;;;;;;2.00;1.17;;;10.90;99.90;;;12.63;66.54;95399.16;5012695;28;20050;-49
2023/10/27 03:01:08;;;;;;;5.40;1.80;;;10.80;99.90;;;12.68;66.38;95391.25;5012388;28;20033;-51
2023/10/27 03:03:36;;;;;;;2.40;1.53;;;10.80;99.90;;;12.66;66.80;95388.84;5013133;28;20336;-50
2023/10/27 03:06:04;;;;;;;1.67;1.20;;;10.80;99.90;;;12.67;66.75;95384.28;5013848;28;20417;-50
2023/10/27 03:08:34;;;;;;;1.97;1.10;;;10.80;99.90;;;12.65;66.71;95383.72;5012218;28;20058;-50
2023/10/27 03:11:01;;;;;;;2.40;1.40;;;10.80;99.90;;;12.64;66.91;95388.25;5012868;28;20052;-51
2023/10/27 03:13:30;;;;;;;1.85;1.20;;;10.80;99.90;;;12.58;66.84;95381.13;5012310;28;20054;-49
2023/10/27 03:15:59;;;;;;;4.53;1.33;;;10.70;99.90;;;12.54;67.04;95380.81;5013828;28;20033;-52
2023/10/27 03:18:27;;;;;;;4.07;1.80;;;10.70;99.90;;;12.56;67.07;95380.53;5013594;28;20046;-49
2023/10/27 03:20:56;;;;;;;3.77;1.53;;;10.80;99.90;;;12.50;67.53;95376.94;5012452;28;20045;-49
2023/10/27 03:23:24;;;;;;;3.43;1.20;;;10.70;99.90;;;12.49;67.15;95382.53;5013579;28;20046;-47
2023/10/27 03:25:52;;;;;;;4.60;1.67;;;10.60;99.90;;;12.47;67.32;95392.63;4996315;28;20053;-47
2023/10/27 03:28:20;;;;;;;6.20;2.00;;;10.60;99.90;;;12.49;67.34;95387.88;5013343;28;20050;-50
2023/10/27 03:30:49;;;;;;;5.97;1.67;;;10.70;99.90;;;12.53;67.30;95383.69;5013530;28;20046;-48
2023/10/27 03:33:17;;;;;;;2.50;1.43;;;10.70;99.90;;;12.59;67.22;95393.44;5010877;28;20082;-51
2023/10/27 03:35:47;;;;;;;3.20;1.57;;;10.80;99.90;;;12.61;67.18;95386.81;5012959;28;20034;-53
2023/10/27 03:38:14;;;;;;;2.80;1.60;;;10.80;99.90;;;12.64;67.15;95388.25;5013773;28;20413;-51
2023/10/27 03:40:43;;;;;;;2.57;1.53;;;10.80;99.90;;;12.68;66.99;95383.25;5012843;28;20398;-52
2023/10/27 03:43:11;;;;;;;3.35;1.17;;;10.80;99.90;;;12.68;67.07;95372.56;5013860;28;20075;-48
2023/10/27 03:45:39;;;;;;;4.72;1.50;;;10.90;99.90;;;12.70;67.14;95365.16;5011488;28;20050;-52
2023/10/27 03:48:06;;;;;;;5.40;2.05;;;10.90;99.90;;;12.70;67.03;95359.81;5011871;28;20494;-48
2023/10/27 03:50:35;;;;;;;3.03;2.05;;;10.90;99.90;;;12.73;66.92;95357.47;5012750;28;20061;-50
2023/10/27 03:53:03;;;;;;;1.93;1.67;;;10.90;99.90;;;12.75;66.93;95342.03;5013089;28;20049;-48
2023/10/27 03:55:31;;;;;;;4.67;1.50;;;11.00;99.90;;;12.77;67.01;95353.31;5012656;28;20050;-52
2023/10/27 03:58:16;;;;;;;3.93;1.87;;;11.00;99.90;;;12.76;66.83;95340.22;5012781;28;20038;-53
2023/10/27 04:00:44;;;;;;;2.83;1.35;;;11.00;99.90;;;12.76;66.86;95351.69;5012734;28;20045;-51
2023/10/27 04:03:12;;;;;;;3.43;1.57;;;11.00;99.90;;;12.75;66.62;95349.25;5008120;28;20042;-50
2023/10/27 04:05:40;;;;;;;2.97;1.73;;;10.90;99.90;;;12.74;66.87;95348.44;5026808;28;20069;-48
2023/10/27 04:08:08;;;;;;;2.83;1.67;;;10.90;99.90;;;12.76;66.86;95354.38;5010983;28;20057;-51
2023/10/27 04:10:36;;;;;;;4.73;2.30;;;10.90;99.90;;;12.70;66.74;95365.16;5012465;28;20536;-49
2023/10/27 04:13:05;;;;;;;4.60;2.20;;;10.80;99.90;;;12.60;66.88;95363.03;5012481;28;20049;-50
2023/10/27 04:15:34;;;;;;;3.17;1.83;;;10.80;99.90;;;12.62;67.09;95371.66;5011345;28;20054;-51
2023/10/27 04:18:02;;;;;;;5.35;2.72;;;10.80;99.90;;;12.63;67.21;95385.81;5010531;28;20482;-51
2023/10/27 04:20:30;;;;;;;5.30;1.90;;;10.80;99.90;;;12.63;67.15;95377.78;5012231;28;20034;-48
2023/10/27 04:22:57;;;;;;;4.27;2.17;;;10.80;99.90;;;12.67;67.10;95376.28;5012606;28;20418;-49
2023/10/27 04:25:25;;;;;;;3.40;1.90;;;10.80;99.90;;;12.70;67.00;95373.16;5012718;28;20042;-51
2023/10/27 04:27:55;;;;;;;7.72;3.13;;;10.90;99.90;;;12.71;67.10;95372.13;5012321;28;20049;-49
2023/10/27 04:30:22;;;;;;;2.67;2.40;;;10.90;99.90;;;12.71;67.08;95375.59;5012208;28;20473;-48
2023/10/27 04:32:52;;;;;;;3.80;2.20;;;10.90;99.90;;;12.71;67.04;95369.44;5011961;28;20049;-50
2023/10/27 04:35:20;;;;;;;5.13;2.67;;;10.90;99.90;;;12.73;66.99;95370.03;5011873;28;20050;-48
2023/10/27 04:37:48;;;;;;;5.75;2.75;;;10.90;99.90;;;12.73;67.08;95368.16;5011346;28;20049;-52
2023/10/27 04:40:15;;;;;;;4.60;2.08;;;10.90;99.90;;;12.66;66.85;95361.31;5011738;28;20421;-48
2023/10/27 04:42:43;;;;;;;2.60;2.20;;;10.80;99.90;;;12.63;67.12;95362.59;5012128;28;20441;-48
2023/10/27 04:45:11;;;;;;;4.33;2.50;;;10.80;99.90;;;12.61;67.03;95362.81;5011985;28;20046;-50
2023/10/27 04:47:39;;;;;;;4.00;2.23;;;10.70;99.90;;;12.57;67.01;95366.19;5011857;28;20520;-47
2023/10/27 04:50:08;;;;;;;2.87;2.03;;;10.70;99.90;;;12.56;67.03;95367.19;5011531;28;20048;-49
2023/10/27 04:52:36;;;;;;;4.73;2.97;;;10.70;99.90;;;12.57;66.95;95376.84;5012006;28;20421;-50
2023/10/27 04:55:05;;;;;;;2.63;1.52;;;10.70;99.90;;;12.55;67.09;95378.94;5012021;28;20041;-53
2023/10/27 04:57:35;;;;;;;3.77;2.33;;;10.70;99.90;;;12.60;66.97;95379.03;5012029;28;20053;-49
2023/10/27 05:00:08;;;;;;;2.40;1.42;;;10.80;99.90;;;12.59;66.89;95375.56;5012192;28;20045;-53
2023/10/27 05:02:36;;;;;;;2.08;1.45;;;10.80;99.90;;;12.58;67.03;95379.28;5011420;28;20042;-50
2023/10/27 05:05:04;;;;;;;4.25;1.55;;;10.80;99.90;;;12.58;66.92;95381.97;5018794;28;20034;-52
2023/10/27 05:07:32;;;;;;;2.40;1.50;;;10.80;99.90;;;12.66;66.88;95388.00;5011587;28;20105;-52
2023/10/27 05:09:59;;;;;;;2.40;1.87;;;10.90;99.90;;;12.70;66.63;95391.84;5011427;28;20046;-51
2023/10/27 05:12:27;;;;;;;2.17;1.47;;;10.90;99.90;;;12.70;66.68;95395.34;5012040;28;20045;-51
2023/10/27 05:14:55;;;;;;;2.22;1.70;;;10.90;99.90;;;12.71;66.55;95380.94;5011217;28;20049;-52
2023/10/27 05:17:22;;;;;;;1.53;1.10;;;10.90;99.90;;;12.72;66.59;95382.56;5011621;28;20049;-51
2023/10/27 05:19:50;;;;;;;1.55;1.45;;;10.90;99.90;;;12.74;66.46;95385.00;5011973;28;20037;-51
2023/10/27 05:22:18;;;;;;;3.50;1.60;;;10.90;99.90;;;12.65;66.81;95395.19;5011825;28;20436;-51
2023/10/27 05:24:46;;;;;;;1.63;1.10;;;10.80;99.90;;;12.60;66.95;95392.38;5011150;28;20050;-49
2023/10/27 05:27:14;;;;;;;1.97;1.20;;;10.80;99.90;;;12.58;66.79;95394.47;5011955;28;20057;-50
2023/10/27 05:29:41;;;;;;;2.47;1.23;;;10.70;99.90;;;12.51;66.88;95394.59;5010947;28;20067;-51
2023/10/27 05:32:12;;;;;;;4.18;1.50;;;10.70;99.90;;;12.55;67.03;95397.63;5011158;28;20497;-52
2023/10/27 05:34:39;;;;;;;2.45;1.35;;;10.80;99.90;;;12.60;66.90;95395.06;5011140;28;20049;-52
2023/10/27 05:37:07;;;;;;;2.13;0.93;;;10.80;99.90;;;12.60;66.92;95395.06;5011079;28;20057;-51
2023/10/27 05:39:35;;;;;;;2.80;1.45;;;10.80;99.90;;;12.58;66.86;95389.97;5008715;28;20425;-52
2023/10/27 05:42:03;;;;;;;3.67;1.50;;;10.80;99.90;;;12.60;66.87;95395.06;5011267;28;20489;-51
2023/10/27 05:44:30;;;;;;;5.03;1.63;;;10.80;99.90;;;12.65;66.99;95402.41;5010697;28;20044;-53
2023/10/27 05:46:58;;;;;;;4.03;1.30;;;10.80;99.90;;;12.65;67.20;95405.06;5011102;28;20232;-53
2023/10/27 05:49:26;;;;;;;3.28;1.77;;;10.80;99.90;;;12.65;67.14;95408.53;5010920;28;20340;-53
2023/10/27 05:51:54;;;;;;;2.33;1.47;;;10.80;99.90;;;12.64;67.37;95409.59;5010823;28;20042;-54
2023/10/27 05:54:21;;;;;;;2.20;1.47;;;10.80;99.90;;;12.64;67.34;95406.09;5011154;28;20065;-51
2023/10/27 05:56:49;;;;;;;2.05;1.00;;;10.80;99.90;;;12.64;67.22;95403.44;5010423;28;20053;-54
2023/10/27 05:59:16;;;;;;;1.95;1.10;;;10.80;99.90;;;12.64;67.25;95414.09;5010666;28;20514;-52
2023/10/27 06:01:44;;;;;;;2.78;1.17;;;10.80;99.90;;;12.58;67.36;95419.34;5010950;28;20398;-53
2023/10/27 06:04:12;;;;;;;2.30;1.30;;;10.70;99.90;;;12.56;67.23;95431.25;5009953;28;20065;-49
2023/10/27 06:06:39;;;;;;;1.10;0.88;;;10.70;99.90;;;12.48;67.46;95437.72;5010955;28;20058;-51
2023/10/27 06:09:07;;;;;;;2.23;1.20;;;10.70;99.90;;;12.40;67.68;95446.06;5011113;28;20053;-53
2023/10/27 06:11:35;;;;;;;3.07;1.20;;;10.70;99.90;;;12.44;67.55;95444.56;5010459;28;20041;-52
2023/10/27 06:14:02;;;;;;;2.07;1.47;;;10.70;99.90;;;12.47;67.60;95444.13;5010227;28;20053;-48
2023/10/27 06:16:30;;;;;;;4.07;1.63;;;10.70;99.90;;;12.51;67.42;95444.50;5010856;28;20042;-51
2023/10/27 06:18:59;;;;;;;3.10;1.17;;;10.70;99.90;;;12.52;67.58;95449.59;5010795;28;20459;-49
2023/10/27 06:21:27;;;;;;;1.75;1.00;;;10.70;99.90;;;12.52;67.53;95451.44;5010512;28;20046;-53
2023/10/27 06:23:55;;;;;;;2.70;1.23;;;10.80;99.90;;;12.49;67.44;95459.91;5010599;28;20046;-51
2023/10/27 06:26:22;;;;;;;2.45;0.93;;;10.70;99.90;;;12.47;67.59;95454.00;5010711;28;20068;-52
2023/10/27 06:28:50;;;;;;;2.22;1.35;;;10.70;99.90;;;12.49;67.56;95465.25;5010607;28;20398;-53
2023/10/27 06:31:18;;;;;;;1.47;1.10;;;10.70;99.90;;;12.47;67.42;95460.13;5010355;28;20046;-48
2023/10/27 06:33:46;;;;;;;1.85;1.00;;;10.70;99.90;;;12.50;67.49;95465.00;5005004;28;20153;-48
2023/10/27 06:36:14;;;;;;;1.85;0.88;;;10.80;99.90;;;12.48;67.70;95464.41;5010520;28;20044;-54
2023/10/27 06:38:41;;;;;;;1.25;0.80;;;10.80;99.90;;;12.48;67.63;95474.28;5010401;28;20049;-53
2023/10/27 06:41:09;;;;;;;1.40;0.90;;;10.80;99.90;;;12.43;67.41;95472.31;5010573;28;20072;-51
2023/10/27 06:43:37;;;;;;;2.10;1.00;;;10.80;99.90;;;12.37;67.87;95475.88;5011130;28;20050;-52
2023/10/27 06:46:04;;;;;;;1.92;0.85;;;10.70;99.90;;;12.38;67.76;95475.63;5011255;28;20034;-53
2023/10/27 06:48:32;;;;;;;0.82;0.77;;;10.80;99.90;;;12.41;67.61;95482.41;5010372;28;20068;-52
2023/10/27 06:51:00;;;;;;;0.93;0.87;;;10.80;99.90;;;12.41;67.53;95480.53;5009903;28;20046;-53
2023/10/27 06:53:28;;;;;;;0.70;0.60;;;10.80;99.90;;;12.45;67.77;95482.75;5010542;28;20054;-48
2023/10/27 06:55:55;;;;;;;1.35;0.75;;;10.80;99.90;;;12.45;67.45;95480.09;5010454;28;20054;-50
2023/10/27 06:58:23;;;;;;;1.50;1.00;;;10.80;99.90;;;12.51;67.42;95489.84;5010327;28;20049;-51
2023/10/27 07:00:51;;;;;;;0.87;0.63;;;10.90;99.90;;;12.44;67.49;95484.59;5008557;28;20050;-50
2023/10/27 07:03:18;;;;;;;10.67;1.27;;;10.80;99.90;;;12.44;67.38;95481.91;5010510;28;20057;-52
2023/10/27 07:05:59;;;;;;;1.50;0.90;;;10.80;99.90;;;12.39;67.42;95487.94;5000748;28;20584;-51
2023/10/27 07:08:27;;;;;;;0.77;0.70;;;10.80;99.90;;;12.34;67.21;95489.66;5003201;28;20053;-52
2023/10/27 07:10:57;;;;;;;6.70;1.40;;;10.80;99.90;;;12.39;67.01;95495.16;5002113;28;20425;-50
2023/10/27 07:13:27;;;;;;;1.10;0.43;;;10.90;99.90;;;12.42;66.92;95492.00;5009327;28;20049;-53
2023/10/27 07:15:55;;;;;;;0.57;0.57;;;10.90;99.90;;;12.47;67.19;95504.69;5005756;28;20050;-50
2023/10/27 07:18:23;;;;;;;0.63;0.50;;;11.00;99.00;;;12.46;66.51;95495.84;5009321;28;20069;-52
2023/10/27 07:20:53;;;;;;;0.60;0.50;;;11.00;99.60;;;12.44;66.38;95492.59;5004581;28;20065;-48
2023/10/27 07:23:21;;;;;;;0.65;0.52;;;11.00;98.60;;;12.39;66.54;95497.81;5009211;28;20061;-52
2023/10/27 07:25:49;;;;;;;0.65;0.50;;;11.00;98.70;;;12.51;66.30;95498.66;5007568;28;20069;-52
2023/10/27 07:28:16;;;;;;;2.05;0.93;;;11.00;98.80;;;12.59;66.22;95501.03;5009154;28;20445;-53
2023/10/27 07:30:44;;;;;;;1.00;0.40;;;11.10;98.50;;;12.40;65.86;95510.91;5007732;28;20056;-48
2023/10/27 07:33:13;;;;;;;0.70;0.70;;;11.10;96.10;;;12.40;66.13;95504.75;5008191;28;20053;-51
2023/10/27 07:35:41;;;;;;;1.38;0.43;;;11.00;97.10;;;12.46;66.11;95506.53;5007828;28;20057;-51
2023/10/27 07:38:08;;;;;;;1.30;0.90;;;11.00;97.40;;;12.50;66.02;95507.69;5006719;28;20517;-54
2023/10/27 07:40:41;;;;;;;0.30;0.30;;;11.10;96.70;;;12.45;66.13;95512.13;5006110;28;20356;-54
2023/10/27 07:43:09;;;;;;;0.52;0.40;;;11.10;94.80;;;12.49;65.82;95521.28;5007700;28;20048;-50
2023/10/27 07:45:37;;;;;;;1.65;0.45;;;11.20;94.60;;;12.58;65.91;95527.94;5005601;28;20413;-54
2023/10/27 07:48:05;;;;;;;0.55;0.50;;;11.30;95.90;;;12.65;65.68;95530.53;5007372;28;20050;-52
2023/10/27 07:50:34;;;;;;;1.55;0.40;;;11.30;94.80;;;12.65;65.52;95535.88;5006322;28;20056;-51
2023/10/27 07:53:02;;;;;;;0.88;0.50;;;11.30;94.20;;;12.66;65.39;95541.00;5007257;28;20057;-52
2023/10/27 07:55:29;;;;;;;0.45;0.38;;;11.30;93.90;;;12.73;65.29;95539.03;5007514;28;20399;-51
2023/10/27 07:57:57;;;;;;;1.93;0.43;;;11.40;94.30;;;12.83;65.19;95543.00;5006050;28;20065;-54
2023/10/27 08:00:25;;;;;;;0.50;0.50;;;11.50;93.10;;;12.91;65.16;95551.53;5004452;28;20053;-51
2023/10/27 08:02:52;;;;;;;0.45;0.45;;;11.50;93.20;;;12.89;65.06;95544.78;5008783;28;20509;-53
2023/10/27 08:05:20;;;;;;;0.70;0.60;;;11.50;92.90;;;12.97;64.75;95561.31;5008372;28;20038;-51
2023/10/27 08:07:48;;;;;;;0.70;0.57;;;11.60;92.60;;;12.91;64.41;95561.38;5004235;28;20054;-54
2023/10/27 08:10:16;;;;;;;0.60;0.50;;;11.60;90.60;;;12.94;64.80;95567.09;5007723;28;20092;-51
2023/10/27 08:12:44;;;;;;;0.75;0.43;;;11.60;92.30;;;12.88;64.41;95575.19;5008151;28;20057;-51
2023/10/27 08:15:12;;;;;;;1.73;0.52;;;11.60;91.10;;;12.79;64.31;95580.03;5008426;28;20058;-52
2023/10/27 08:17:39;;;;;;;0.47;0.45;;;11.60;91.30;;;12.79;64.39;95572.84;5007062;28;20073;-53
2023/10/27 08:20:08;;;;;;;0.32;0.30;;;11.60;90.70;;;12.87;64.25;95597.59;5007374;28;20057;-52
2023/10/27 08:22:35;;;;;;;4.15;0.50;;;11.50;90.60;;;12.88;64.52;95589.38;5007523;28;20034;-53
2023/10/27 08:25:03;;;;;;;0.38;0.38;;;11.60;92.50;;;12.91;64.49;95594.25;5007219;28;20056;-54
2023/10/27 08:27:31;;;;;;;1.30;0.60;;;11.60;92.40;;;12.99;64.43;95601.16;5007531;28;20038;-54
2023/10/27 08:29:59;;;;;;;0.38;0.38;;;11.60;92.20;;;13.02;64.40;95599.88;5006109;28;20049;-51
2023/10/27 08:32:26;;;;;;;0.70;0.70;;;11.60;90.70;;;13.01;64.06;95601.75;5011903;28;20105;-51
2023/10/27 08:34:54;;;;;;;0.90;0.50;;;11.70;90.40;;;13.02;64.31;95614.03;5014802;28;20045;-54
2023/10/27 08:37:22;;;;;;;0.63;0.50;;;11.60;92.20;;;13.04;64.21;95606.59;5010857;28;20044;-52
2023/10/27 08:39:50;;;;;;;0.88;0.55;;;11.70;91.90;;;13.12;64.27;95616.16;5010305;28;20053;-51
2023/10/27 08:42:19;;;;;;;0.82;0.60;;;11.70;92.50;;;13.04;64.03;95619.97;5010716;28;20041;-51
2023/10/27 08:44:47;;;;;;;1.80;0.73;;;11.60;92.30;;;13.12;64.16;95618.84;5022077;28;20045;-51
2023/10/27 08:47:14;;;;;;;1.52;0.90;;;11.60;92.60;;;13.15;64.32;95631.75;5000471;28;20121;-53
2023/10/27 08:49:42;;;;;;;0.82;0.43;;;11.60;93.70;;;13.16;64.21;95623.53;5014325;28;20049;-53
2023/10/27 08:52:10;;;;;;;0.80;0.52;;;11.60;92.60;;;13.17;64.13;95630.47;5011915;28;20057;-52
2023/10/27 08:54:41;;;;;;;0.63;0.52;;;11.70;93.50;;;13.23;64.26;95626.09;5010563;28;20061;-52
2023/10/27 08:57:08;;;;;;;1.45;0.35;;;11.70;93.60;;;13.30;64.07;95631.34;5001012;28;20061;-52
2023/10/27 08:59:36;;;;;;;0.38;0.38;;;11.80;93.10;;;13.24;63.98;95635.75;5010726;28;20042;-52
2023/10/27 09:02:04;;;;;;;0.20;0.20;;;11.80;91.70;;;13.26;64.26;95643.50;5011037;28;20382;-51
2023/10/27 09:04:33;;;;;;;0.32;0.30;;;11.80;93.40;;;13.23;64.26;95646.66;5009140;28;20046;-54
2023/10/27 09:07:02;;;;;;;0.30;0.30;;;11.80;93.20;;;13.18;64.28;95644.63;5010814;28;20038;-50
2023/10/27 09:09:31;;;;;;;1.50;0.55;;;11.70;93.00;;;13.31;64.33;95654.38;4999002;28;20046;-53
2023/10/27 09:11:58;;;;;;;0.57;0.40;;;11.80;94.70;;;13.33;64.27;95655.78;5007909;28;20517;-49
2023/10/27 09:14:30;;;;;;;0.45;0.40;;;11.80;94.00;;;13.29;64.25;95661.78;5011001;28;20045;-48
2023/10/27 09:17:05;;;;;;;0.80;0.50;;;11.80;93.90;;;13.29;64.12;95661.78;5013155;28;20045;-53
2023/10/27 09:19:34;;;;;;;0.40;0.38;;;11.70;94.70;;;13.20;64.21;95671.94;5009913;28;20045;-50
2023/10/27 09:22:13;;;;;;;1.70;0.75;;;11.70;93.20;;;13.26;64.36;95676.41;5010252;28;20125;-50
2023/10/27 09:24:40;;;;;;;2.00;0.70;;;11.80;94.30;;;13.31;64.44;95681.91;5010162;28;20457;-53
2023/10/27 09:27:08;;;;;;;1.00;0.70;;;11.90;94.10;;;13.36;64.55;95683.91;5005317;28;20517;-52
2023/10/27 09:29:43;;;;;;;0.85;0.40;;;11.90;93.60;;;13.33;64.57;95679.81;4998387;28;20041;-52
2023/10/27 09:32:27;;;;;;;0.28;0.28;;;11.90;94.50;;;13.25;64.81;95681.97;5010492;28;20417;-53
2023/10/27 09:35:09;;;;;;;;;;;11.90;94.30;;;13.22;64.97;95675.22;5007394;28;20042;-54
2023/10/27 09:37:41;;;;;;;2.28;1.20;;;11.90;93.80;;;13.25;65.05;95690.00;5009210;28;20286;-52
2023/10/27 09:40:11;;;;;;;1.08;0.63;;;11.90;94.80;;;13.36;64.99;95692.75;4992465;28;20050;-53
2023/10/27 09:42:40;;;;;;;1.88;0.70;;;12.00;94.80;;;13.44;64.85;95701.50;5010861;28;20049;-53
2023/10/27 09:45:13;;;;;;;1.48;1.10;;;12.00;95.10;;;13.51;64.96;95700.38;5020516;28;20521;-52
2023/10/27 09:47:41;;;;;;;0.93;0.70;;;12.10;95.00;;;13.42;64.89;95707.06;5010749;28;20069;-53
2023/10/27 09:50:14;;;;;;;0.77;0.60;;;12.00;95.10;;;13.38;65.38;95713.91;5012996;28;20093;-50
2023/10/27 09:52:44;;;;;;;1.30;0.50;;;12.00;96.50;;;13.37;65.41;95713.06;5011044;28;20050;-53
2023/10/27 09:55:13;;;;;;;0.50;0.50;;;11.90;97.30;;;13.51;65.49;95720.91;5009519;28;20061;-51
2023/10/27 09:57:46;;;;;;;1.00;0.60;;;12.10;98.10;;;13.56;65.37;95721.06;5010265;28;20045;-53
2023/10/27 10:00:28;;;;;;;0.63;0.60;;;12.10;97.00;;;13.63;65.31;95727.13;5011083;28;20057;-52
2023/10/27 10:02:57;;;;;;;0.73;0.70;;;12.20;97.00;;;13.62;65.38;95724.69;5001774;28;20050;-50
2023/10/27 10:05:25;;;;;;;1.05;0.40;;;12.10;97.00;;;13.66;65.43;95723.19;5016592;28;20038;-53
2023/10/27 10:07:54;;;;;;;1.00;0.80;;;12.20;97.30;;;13.76;65.47;95728.78;5009162;28;20049;-54
2023/10/27 10:10:33;;;;;;;0.80;0.70;;;12.30;97.80;;;13.81;65.42;95739.63;5009994;28;20057;-54
2023/10/27 10:13:18;;;;;;;0.40;0.35;;;12.30;98.00;;;13.83;65.29;95740.22;5010383;28;20049;-52
2023/10/27 10:15:47;;;;;;;0.77;0.50;;;12.30;96.90;;;13.74;65.17;95746.91;5010468;28;20041;-52
2023/10/27 10:18:20;;;;;;;1.90;0.80;;;12.20;97.10;;;13.74;65.49;95734.34;5005249;28;20050;-50
2023/10/27 10:20:48;;;;;;;1.45;1.00;;;12.20;98.00;;;13.77;65.21;95744.63;5010104;28;20041;-50
2023/10/27 10:23:18;;;;;;;3.40;1.52;;;12.20;97.80;;;13.56;65.71;95750.47;5010524;28;20046;-52
2023/10/27 10:25:59;;;;;;;1.52;1.17;;;12.20;97.60;;;13.61;65.76;95750.63;5010500;28;20046;-51